createdAt,value
2016-02-05T00:00:39.262Z,90.48
2016-02-05T00:01:39.186Z,90.29
2016-02-05T00:02:39.127Z,90.29
2016-02-05T00:03:39.082Z,89.91
2016-02-05T00:04:39.023Z,90.38
2016-02-05T00:05:38.963Z,89.72
2016-02-05T00:06:38.919Z,89.91
2016-02-05T00:07:38.844Z,90.29
2016-02-05T00:08:38.815Z,89.91
2016-02-05T00:09:38.755Z,89.72
2016-02-05T00:10:38.728Z,89.72
2016-02-05T00:11:38.636Z,90
2016-02-05T00:12:38.592Z,90
2016-02-05T00:13:38.517Z,89.62
2016-02-05T00:14:38.457Z,90.19
2016-02-05T00:15:38.418Z,89.81
2016-02-05T00:16:38.342Z,89.81
2016-02-05T00:17:38.284Z,90
2016-02-05T00:18:38.223Z,89.81
2016-02-05T00:19:38.164Z,89.62
2016-02-05T00:20:38.136Z,90.1
2016-02-05T00:21:38.059Z,89.72
2016-02-05T00:22:38.032Z,89.81
2016-02-05T00:23:37.956Z,89.62
2016-02-05T00:24:37.912Z,90.1
2016-02-05T00:25:37.842Z,89.62
2016-02-05T00:26:37.782Z,89.81
2016-02-05T00:27:37.722Z,89.53
2016-02-05T00:28:37.678Z,89.81
2016-02-05T00:29:37.603Z,89.72
2016-02-05T00:30:37.549Z,90
2016-02-05T00:31:37.504Z,89.62
2016-02-05T00:32:37.435Z,89.72
2016-02-05T00:33:37.376Z,89.81
2016-02-05T00:34:37.331Z,90
2016-02-05T00:35:37.265Z,90.1
2016-02-05T00:36:37.221Z,90
2016-02-05T00:37:37.145Z,89.62
2016-02-05T00:38:37.117Z,89.81
2016-02-05T00:39:37.042Z,89.72
2016-02-05T00:40:36.982Z,89.72
2016-02-05T00:41:36.922Z,90.1
2016-02-05T00:42:36.863Z,89.72
2016-02-05T00:43:36.809Z,89.91
2016-02-05T00:44:36.748Z,90
2016-02-05T00:45:36.689Z,89.62
2016-02-05T00:46:36.645Z,90
2016-02-05T00:47:36.586Z,89.81
2016-02-05T00:48:36.557Z,89.81
2016-02-05T00:49:36.466Z,90
2016-02-05T00:50:36.406Z,89.62
2016-02-05T00:51:36.362Z,89.81
2016-02-05T00:52:36.303Z,89.91
2016-02-05T00:53:36.258Z,89.91
2016-02-05T00:54:36.167Z,89.91
2016-02-05T00:55:36.126Z,89.91
2016-02-05T00:56:36.067Z,90.1
2016-02-05T00:57:36.026Z,90
2016-02-05T00:58:35.981Z,90.38
2016-02-05T00:59:35.921Z,90.1
2016-02-05T01:00:35.831Z,90.1
2016-02-05T01:01:35.787Z,90.29
2016-02-05T01:02:35.757Z,90.19
2016-02-05T01:03:35.682Z,89.91
2016-02-05T01:04:35.607Z,89.81
2016-02-05T01:05:35.563Z,89.72
2016-02-05T01:06:35.534Z,89.53
2016-02-05T01:07:35.444Z,89.81
2016-02-05T01:08:35.416Z,89.72
2016-02-05T01:09:35.340Z,89.91
2016-02-05T01:10:35.280Z,90
2016-02-05T01:11:35.220Z,89.81
2016-02-05T01:12:35.162Z,89.81
2016-02-05T01:13:35.102Z,89.81
2016-02-05T01:14:35.074Z,89.81
2016-02-05T01:15:35.013Z,89.72
2016-02-05T01:16:34.954Z,89.62
2016-02-05T01:17:34.925Z,89.81
2016-02-05T01:18:34.838Z,89.91
2016-02-05T01:19:34.762Z,90.38
2016-02-05T01:20:34.717Z,89.91
2016-02-05T01:21:34.675Z,90
2016-02-05T01:22:34.614Z,90.38
2016-02-05T01:23:34.555Z,90
2016-02-05T01:24:34.510Z,90.19
2016-02-05T01:25:34.467Z,90.19
2016-02-05T01:26:34.438Z,89.81
2016-02-05T01:27:34.367Z,90.19
2016-02-05T01:28:34.338Z,89.62
2016-02-05T01:29:34.247Z,89.91
2016-02-05T01:30:34.172Z,89.53
2016-02-05T01:31:34.096Z,89.91
2016-02-05T01:32:34.037Z,89.81
2016-02-05T01:33:33.977Z,89.72
2016-02-05T01:34:33.980Z,89.72
2016-02-05T01:35:33.892Z,89.81
2016-02-05T01:36:33.880Z,89.53
2016-02-05T01:37:33.820Z,89.81
2016-02-05T01:38:33.714Z,89.91
2016-02-05T01:39:33.653Z,89.91
2016-02-05T01:40:33.609Z,89.91
2016-02-05T01:41:33.549Z,89.91
2016-02-05T01:42:33.536Z,89.81
2016-02-05T01:43:33.446Z,90.19
2016-02-05T01:44:33.369Z,90
2016-02-05T01:45:33.372Z,90.1
2016-02-05T01:46:33.265Z,90.1
2016-02-05T01:47:33.208Z,90.57
2016-02-05T01:48:33.147Z,90.38
2016-02-05T01:49:33.103Z,90.1
2016-02-05T01:50:33.058Z,90.1
2016-02-05T01:51:33.014Z,90
2016-02-05T01:52:32.928Z,90.67
2016-02-05T01:53:32.883Z,90.76
2016-02-05T01:54:32.805Z,90.76
2016-02-05T01:55:32.764Z,90.86
2016-02-05T01:56:32.673Z,90.76
2016-02-05T01:57:32.629Z,90.38
2016-02-05T01:58:32.624Z,91.14
2016-02-05T01:59:32.532Z,91.42
2016-02-05T02:00:32.473Z,90.86
2016-02-05T02:01:32.476Z,90.76
2016-02-05T02:02:32.369Z,90.86
2016-02-05T02:03:32.309Z,91.14
2016-02-05T02:04:32.254Z,91.33
2016-02-05T02:05:32.179Z,91.05
2016-02-05T02:06:32.150Z,91.24
2016-02-05T02:07:32.091Z,91.05
2016-02-05T02:08:32.219Z,91.33
2016-02-05T02:09:31.956Z,90.76
2016-02-05T02:10:31.928Z,90.38
2016-02-05T02:11:31.868Z,90.38
2016-02-05T02:12:31.823Z,90.76
2016-02-05T02:13:31.733Z,90.86
2016-02-05T02:14:31.673Z,90.48
2016-02-05T02:15:31.645Z,90.86
2016-02-05T02:16:31.554Z,90.76
2016-02-05T02:17:31.509Z,90.48
2016-02-05T02:18:31.481Z,90.76
2016-02-05T02:19:31.406Z,90.67
2016-02-05T02:20:31.332Z,90.76
2016-02-05T02:21:31.303Z,90.86
2016-02-05T02:22:31.244Z,90.86
2016-02-05T02:23:31.169Z,90.76
2016-02-05T02:24:31.140Z,90.86
2016-02-05T02:25:31.064Z,90.48
2016-02-05T02:26:31.020Z,90.57
2016-02-05T02:27:30.930Z,90.67
2016-02-05T02:28:30.872Z,90.57
2016-02-05T02:29:30.859Z,90.57
2016-02-05T02:30:30.774Z,90.76
2016-02-05T02:31:30.729Z,90.95
2016-02-05T02:32:30.701Z,90.86
2016-02-05T02:33:30.640Z,90.86
2016-02-05T02:34:30.535Z,90.76
2016-02-05T02:35:30.505Z,91.33
2016-02-05T02:36:30.477Z,90.76
2016-02-05T02:37:30.370Z,90.76
2016-02-05T02:38:30.326Z,90.48
2016-02-05T02:39:30.282Z,90.57
2016-02-05T02:40:30.208Z,90.48
2016-02-05T02:41:30.147Z,90.57
2016-02-05T02:42:30.087Z,90.76
2016-02-05T02:43:30.060Z,91.42
2016-02-05T02:44:29.989Z,90.67
2016-02-05T02:45:29.944Z,90.57
2016-02-05T02:46:29.868Z,90.86
2016-02-05T02:47:29.824Z,90.95
2016-02-05T02:48:29.781Z,90.86
2016-02-05T02:49:29.720Z,90.86
2016-02-05T02:50:29.676Z,90.76
2016-02-05T02:51:29.601Z,90.57
2016-02-05T02:52:29.557Z,90.48
2016-02-05T02:53:29.484Z,90.76
2016-02-05T02:54:29.456Z,90.67
2016-02-05T02:55:29.364Z,91.33
2016-02-05T02:56:29.305Z,91.24
2016-02-05T02:57:29.276Z,91.24
2016-02-05T02:58:29.202Z,91.05
2016-02-05T02:59:29.143Z,91.8
2016-02-05T03:00:29.086Z,91.33
2016-02-05T03:01:29.042Z,92.38
2016-02-05T03:02:28.982Z,91.8
2016-02-05T03:03:28.938Z,91.9
2016-02-05T03:04:28.878Z,91.8
2016-02-05T03:05:28.835Z,91.33
2016-02-05T03:06:28.744Z,91.61
2016-02-05T03:07:28.700Z,91.8
2016-02-05T03:08:28.624Z,91.24
2016-02-05T03:09:28.596Z,91.33
2016-02-05T03:10:28.520Z,91.05
2016-02-05T03:11:28.461Z,91.14
2016-02-05T03:12:28.416Z,91.24
2016-02-05T03:13:28.357Z,91.71
2016-02-05T03:14:28.317Z,91.9
2016-02-05T03:15:28.308Z,91.33
2016-02-05T03:16:28.185Z,91.24
2016-02-05T03:17:28.156Z,91.8
2016-02-05T03:18:28.081Z,91.71
2016-02-05T03:19:28.036Z,91.8
2016-02-05T03:20:27.981Z,91.9
2016-02-05T03:21:27.937Z,91.9
2016-02-05T03:22:27.924Z,91.71
2016-02-05T03:23:27.786Z,91.9
2016-02-05T03:24:27.742Z,91.9
2016-02-05T03:25:27.698Z,91.33
2016-02-05T03:26:27.623Z,91.61
2016-02-05T03:27:27.579Z,91.9
2016-02-05T03:28:27.535Z,91.52
2016-02-05T03:29:27.475Z,91.9
2016-02-05T03:30:27.415Z,91.52
2016-02-05T03:31:27.367Z,91.9
2016-02-05T03:32:27.308Z,91.99
2016-02-05T03:33:27.263Z,91.99
2016-02-05T03:34:27.202Z,91.8
2016-02-05T03:35:27.143Z,91.8
2016-02-05T03:36:27.083Z,91.61
2016-02-05T03:37:27.024Z,91.42
2016-02-05T03:38:26.965Z,91.52
2016-02-05T03:39:26.922Z,91.8
2016-02-05T03:40:26.830Z,91.24
2016-02-05T03:41:26.803Z,91.33
2016-02-05T03:42:26.726Z,91.33
2016-02-05T03:43:26.683Z,91.24
2016-02-05T03:44:26.623Z,91.52
2016-02-05T03:45:26.564Z,91.05
2016-02-05T03:46:26.552Z,91.42
2016-02-05T03:47:26.444Z,91.71
2016-02-05T03:48:26.417Z,91.9
2016-02-05T03:49:26.357Z,91.9
2016-02-05T03:50:26.282Z,91.9
2016-02-05T03:51:26.252Z,91.42
2016-02-05T03:52:26.194Z,91.42
2016-02-05T03:53:26.118Z,91.24
2016-02-05T03:54:26.073Z,91.8
2016-02-05T03:55:25.999Z,91.52
2016-02-05T03:56:25.968Z,91.71
2016-02-05T03:57:25.894Z,91.24
2016-02-05T03:58:25.853Z,91.24
2016-02-05T03:59:25.793Z,91.24
2016-02-05T04:00:25.724Z,91.33
2016-02-05T04:01:25.648Z,90.95
2016-02-05T04:02:25.620Z,91.33
2016-02-05T04:03:25.561Z,91.33
2016-02-05T04:04:25.500Z,91.14
2016-02-05T04:05:25.442Z,91.33
2016-02-05T04:06:25.447Z,91.24
2016-02-05T04:07:25.340Z,91.24
2016-02-05T04:08:25.264Z,91.61
2016-02-05T04:09:25.220Z,91.52
2016-02-05T04:10:25.176Z,91.8
2016-02-05T04:11:25.100Z,91.61
2016-02-05T04:12:25.056Z,91.52
2016-02-05T04:13:25.044Z,91.24
2016-02-05T04:14:24.952Z,91.71
2016-02-05T04:15:24.877Z,91.8
2016-02-05T04:16:24.849Z,91.9
2016-02-05T04:17:24.773Z,91.99
2016-02-05T04:18:24.714Z,91.9
2016-02-05T04:19:24.685Z,91.8
2016-02-05T04:20:24.595Z,91.8
2016-02-05T04:21:24.581Z,92.09
2016-02-05T04:22:24.491Z,92.09
2016-02-05T04:23:24.436Z,91.9
2016-02-05T04:24:24.362Z,91.9
2016-02-05T04:25:24.348Z,91.8
2016-02-05T04:26:24.272Z,91.9
2016-02-05T04:27:24.197Z,92.09
2016-02-05T04:28:24.168Z,92.18
2016-02-05T04:29:24.092Z,91.99
2016-02-05T04:30:24.031Z,92.18
2016-02-05T04:31:23.987Z,92.09
2016-02-05T04:32:23.943Z,92.18
2016-02-05T04:33:23.893Z,92.18
2016-02-05T04:34:23.809Z,91.99
2016-02-05T04:35:23.772Z,92.18
2016-02-05T04:36:23.673Z,92.57
2016-02-05T04:37:23.637Z,92.09
2016-02-05T04:38:23.543Z,92.18
2016-02-05T04:39:23.496Z,91.99
2016-02-05T04:40:23.464Z,92.09
2016-02-05T04:41:23.387Z,92.09
2016-02-05T04:42:23.325Z,92.28
2016-02-05T04:43:23.264Z,91.99
2016-02-05T04:44:23.218Z,92.09
2016-02-05T04:45:23.141Z,91.52
2016-02-05T04:46:23.112Z,91.9
2016-02-05T04:47:23.050Z,91.42
2016-02-05T04:48:23.084Z,91.71
2016-02-05T04:49:22.946Z,91.61
2016-02-05T04:50:22.854Z,91.71
2016-02-05T04:51:22.843Z,91.33
2016-02-05T04:52:22.735Z,91.42
2016-02-05T04:53:22.723Z,91.33
2016-02-05T04:54:22.663Z,91.33
2016-02-05T04:55:22.603Z,90.95
2016-02-05T04:56:22.516Z,91.33
2016-02-05T04:57:22.503Z,91.33
2016-02-05T04:58:22.428Z,91.38
2016-02-05T04:59:22.384Z,91.42
2016-02-05T05:00:22.327Z,91.24
2016-02-05T05:01:22.266Z,91.38
2016-02-05T05:02:22.191Z,91.38
2016-02-05T05:03:22.165Z,91.33
2016-02-05T05:04:22.106Z,91.42
2016-02-05T05:05:22.030Z,91.24
2016-02-05T05:06:21.985Z,91.38
2016-02-05T05:07:21.894Z,91.9
2016-02-05T05:08:21.867Z,91.71
2016-02-05T05:09:21.822Z,90.9
2016-02-05T05:10:21.777Z,90.81
2016-02-05T05:11:21.687Z,90.62
2016-02-05T05:12:21.627Z,90.71
2016-02-05T05:13:21.568Z,90.48
2016-02-05T05:14:21.538Z,90.71
2016-02-05T05:15:21.463Z,90.81
2016-02-05T05:16:21.404Z,90.43
2016-02-05T05:17:21.360Z,91.28
2016-02-05T05:18:21.285Z,91.24
2016-02-05T05:19:21.240Z,90.86
2016-02-05T05:20:21.165Z,90.76
2016-02-05T05:21:21.152Z,91.38
2016-02-05T05:22:21.093Z,91.33
2016-02-05T05:23:21.017Z,90.86
2016-02-05T05:24:20.974Z,90.57
2016-02-05T05:25:20.914Z,90.81
2016-02-05T05:26:20.855Z,90.76
2016-02-05T05:27:20.825Z,90.81
2016-02-05T05:28:20.766Z,90.52
2016-02-05T05:29:20.710Z,90.43
2016-02-05T05:30:20.637Z,90.43
2016-02-05T05:31:20.609Z,90.52
2016-02-05T05:32:20.518Z,90.71
2016-02-05T05:33:20.504Z,90.62
2016-02-05T05:34:20.429Z,90.62
2016-02-05T05:35:20.385Z,90.62
2016-02-05T05:36:20.299Z,90.43
2016-02-05T05:37:20.254Z,90.43
2016-02-05T05:38:20.210Z,90.52
2016-02-05T05:39:20.150Z,90.62
2016-02-05T05:40:20.075Z,90.52
2016-02-05T05:41:20.062Z,90.43
2016-02-05T05:42:19.985Z,90.62
2016-02-05T05:43:19.927Z,90.62
2016-02-05T05:44:19.883Z,90.48
2016-02-05T05:45:19.824Z,90.81
2016-02-05T05:46:19.732Z,90.71
2016-02-05T05:47:19.672Z,90.62
2016-02-05T05:48:19.644Z,90.52
2016-02-05T05:49:19.585Z,90.33
2016-02-05T05:50:19.509Z,90.81
2016-02-05T05:51:19.466Z,90.43
2016-02-05T05:52:19.436Z,90.62
2016-02-05T05:53:19.393Z,90.71
2016-02-05T05:54:19.302Z,90.71
2016-02-05T05:55:19.242Z,90.76
2016-02-05T05:56:19.166Z,90.43
2016-02-05T05:57:19.121Z,90.52
2016-02-05T05:58:19.063Z,90.81
2016-02-05T05:59:19.019Z,90.62
2016-02-05T06:00:18.959Z,90.67
2016-02-05T06:01:18.883Z,90.52
2016-02-05T06:02:18.871Z,90.38
2016-02-05T06:03:18.795Z,90.1
2016-02-05T06:04:18.720Z,90.52
2016-02-05T06:05:18.661Z,90.52
2016-02-05T06:06:18.616Z,90.81
2016-02-05T06:07:18.588Z,90.76
2016-02-05T06:08:18.559Z,90.62
2016-02-05T06:09:18.470Z,90.48
2016-02-05T06:10:18.440Z,90.62
2016-02-05T06:11:18.365Z,90.38
2016-02-05T06:12:18.273Z,90.9
2016-02-05T06:13:18.261Z,90.9
2016-02-05T06:14:18.170Z,90.14
2016-02-05T06:15:18.126Z,90.52
2016-02-05T06:16:18.082Z,89.95
2016-02-05T06:17:18.022Z,90.05
2016-02-05T06:18:17.948Z,90.52
2016-02-05T06:19:17.889Z,90.43
2016-02-05T06:20:17.844Z,90.71
2016-02-05T06:21:17.773Z,90.76
2016-02-05T06:22:17.759Z,90.52
2016-02-05T06:23:17.700Z,90.24
2016-02-05T06:24:17.609Z,90.14
2016-02-05T06:25:17.549Z,90.9
2016-02-05T06:26:17.505Z,90.9
2016-02-05T06:27:17.476Z,90.71
2016-02-05T06:28:17.401Z,90.86
2016-02-05T06:29:17.360Z,90.71
2016-02-05T06:30:17.309Z,90.81
2016-02-05T06:31:17.217Z,91
2016-02-05T06:32:17.189Z,90.81
2016-02-05T06:33:17.145Z,90.43
2016-02-05T06:34:17.054Z,90.9
2016-02-05T06:35:17.009Z,90.67
2016-02-05T06:36:16.950Z,90.81
2016-02-05T06:37:16.922Z,90.9
2016-02-05T06:38:16.845Z,90.81
2016-02-05T06:39:16.786Z,90.81
2016-02-05T06:40:16.726Z,90.71
2016-02-05T06:41:16.667Z,90.52
2016-02-05T06:42:16.607Z,90.9
2016-02-05T06:43:16.564Z,91
2016-02-05T06:44:16.519Z,90.52
2016-02-05T06:45:16.459Z,90.43
2016-02-05T06:46:16.384Z,90.14
2016-02-05T06:47:16.340Z,90.62
2016-02-05T06:48:16.264Z,90.9
2016-02-05T06:49:16.235Z,90.71
2016-02-05T06:50:16.160Z,90.67
2016-02-05T06:51:16.117Z,90.81
2016-02-05T06:52:16.041Z,90.52
2016-02-05T06:53:15.996Z,90.24
2016-02-05T06:54:15.953Z,90.43
2016-02-05T06:55:15.892Z,90.62
2016-02-05T06:56:15.834Z,90.43
2016-02-05T06:57:15.789Z,90.52
2016-02-05T06:58:15.745Z,90.9
2016-02-05T06:59:15.700Z,90.62
2016-02-05T07:00:15.592Z,91.33
2016-02-05T07:01:15.547Z,90.9
2016-02-05T07:02:15.534Z,90.81
2016-02-05T07:03:15.443Z,90.52
2016-02-05T07:04:15.415Z,90.62
2016-02-05T07:05:15.356Z,90.81
2016-02-05T07:06:15.281Z,90.9
2016-02-05T07:07:15.252Z,90.43
2016-02-05T07:08:15.192Z,90.52
2016-02-05T07:09:15.118Z,91.38
2016-02-05T07:10:15.073Z,90.67
2016-02-05T07:11:14.982Z,90.71
2016-02-05T07:12:14.922Z,90.9
2016-02-05T07:13:14.895Z,90.81
2016-02-05T07:14:14.835Z,90.81
2016-02-05T07:15:14.760Z,91
2016-02-05T07:16:14.731Z,90.43
2016-02-05T07:17:13.906Z,90.05
2016-02-05T07:18:14.627Z,89.95
2016-02-05T07:19:14.615Z,90.14
2016-02-05T07:20:14.492Z,90.43
2016-02-05T07:21:14.432Z,90.24
2016-02-05T07:22:14.395Z,90.05
2016-02-05T07:23:14.319Z,89.86
2016-02-05T07:24:14.275Z,89.76
2016-02-05T07:25:14.216Z,90.05
2016-02-05T07:26:14.172Z,90.14
2016-02-05T07:27:14.097Z,89.58
2016-02-05T07:28:14.068Z,89.58
2016-02-05T07:29:13.993Z,89.95
2016-02-05T07:30:13.950Z,90.14
2016-02-05T07:31:13.906Z,90.14
2016-02-05T07:32:13.847Z,89.86
2016-02-05T07:33:13.786Z,89.67
2016-02-05T07:34:13.758Z,89.67
2016-02-05T07:35:13.654Z,89.76
2016-02-05T07:36:13.610Z,89.58
2016-02-05T07:37:13.409Z,89.58
2016-02-05T07:38:13.490Z,89.1
2016-02-05T07:39:13.445Z,89.39
2016-02-05T07:40:13.527Z,89.39
2016-02-05T07:41:13.342Z,89
2016-02-05T07:42:13.298Z,89.48
2016-02-05T07:43:13.237Z,89.2
2016-02-05T07:44:13.208Z,89.29
2016-02-05T07:45:13.134Z,89.2
2016-02-05T07:46:13.043Z,89.2
2016-02-05T07:47:12.998Z,89.29
2016-02-05T07:48:12.922Z,89.2
2016-02-05T07:49:12.878Z,89.39
2016-02-05T07:50:12.850Z,89.39
2016-02-05T07:51:12.774Z,89.1
2016-02-05T07:52:12.746Z,89
2016-02-05T07:53:12.655Z,89.29
2016-02-05T07:54:12.626Z,89.2
2016-02-05T07:55:12.538Z,89.58
2016-02-05T07:56:12.477Z,89.1
2016-02-05T07:57:12.433Z,89.29
2016-02-05T07:58:12.373Z,88.72
2016-02-05T07:59:12.329Z,89.1
2016-02-05T08:00:12.254Z,89.2
2016-02-05T08:01:12.231Z,89.29
2016-02-05T08:02:12.190Z,88.72
2016-02-05T08:03:12.114Z,89.39
2016-02-05T08:04:12.055Z,88.72
2016-02-05T08:05:11.995Z,88.81
2016-02-05T08:06:11.982Z,89
2016-02-05T08:07:11.891Z,88.91
2016-02-05T08:08:11.848Z,89.2
2016-02-05T08:09:11.772Z,88.91
2016-02-05T08:10:11.744Z,88.91
2016-02-05T08:11:11.668Z,89
2016-02-05T08:12:11.608Z,88.81
2016-02-05T08:13:11.564Z,89.33
2016-02-05T08:14:11.504Z,89.1
2016-02-05T08:15:11.476Z,88.95
2016-02-05T08:16:11.385Z,89.2
2016-02-05T08:17:11.356Z,89.2
2016-02-05T08:18:11.296Z,89.05
2016-02-05T08:19:11.237Z,88.95
2016-02-05T08:20:11.179Z,88.86
2016-02-05T08:21:11.104Z,89.14
2016-02-05T08:22:11.092Z,89.14
2016-02-05T08:23:10.985Z,88.95
2016-02-05T08:24:10.956Z,88.95
2016-02-05T08:25:10.880Z,89.05
2016-02-05T08:26:10.868Z,88.48
2016-02-05T08:27:10.793Z,89.14
2016-02-05T08:28:10.750Z,88.86
2016-02-05T08:29:10.706Z,88.39
2016-02-05T08:30:10.646Z,88.39
2016-02-05T08:31:10.572Z,88.39
2016-02-05T08:32:10.544Z,88.48
2016-02-05T08:33:10.469Z,88.39
2016-02-05T08:34:10.424Z,88.39
2016-02-05T08:35:10.333Z,88.39
2016-02-05T08:36:10.274Z,88.48
2016-02-05T08:37:10.229Z,88.39
2016-02-05T08:38:10.232Z,88.1
2016-02-05T08:39:10.157Z,88.29
2016-02-05T08:40:10.066Z,88.01
2016-02-05T08:41:10.022Z,88.67
2016-02-05T08:42:09.978Z,88.57
2016-02-05T08:43:09.918Z,88.29
2016-02-05T08:44:09.874Z,88.48
2016-02-05T08:45:09.783Z,89.14
2016-02-05T08:46:09.817Z,89.05
2016-02-05T08:47:09.694Z,89.05
2016-02-05T08:48:09.652Z,88.67
2016-02-05T08:49:09.593Z,88.86
2016-02-05T08:50:09.533Z,88.95
2016-02-05T08:51:09.489Z,88.39
2016-02-05T08:52:09.460Z,88.57
2016-02-05T08:53:09.386Z,88.39
2016-02-05T08:54:09.467Z,88.76
2016-02-05T08:55:09.252Z,88.2
2016-02-05T08:56:09.208Z,87.24
2016-02-05T08:57:09.163Z,87.34
2016-02-05T08:58:09.103Z,88.01
2016-02-05T08:59:09.043Z,88.1
2016-02-05T09:00:08.970Z,88.39
2016-02-05T09:01:08.912Z,88.2
2016-02-05T09:02:08.868Z,88.01
2016-02-05T09:03:08.824Z,87.43
2016-02-05T09:04:08.779Z,87.62
2016-02-05T09:05:08.723Z,87.72
2016-02-05T09:06:08.679Z,87.86
2016-02-05T09:07:08.588Z,88.2
2016-02-05T09:08:08.543Z,87.86
2016-02-05T09:09:08.484Z,87.76
2016-02-05T09:10:08.440Z,87.29
2016-02-05T09:11:08.411Z,86.96
2016-02-05T09:12:08.319Z,86.91
2016-02-05T09:13:08.294Z,87.29
2016-02-05T09:14:08.221Z,87.48
2016-02-05T09:15:08.269Z,87.38
2016-02-05T09:16:08.102Z,87.76
2016-02-05T09:17:07.888Z,87.53
2016-02-05T09:18:07.983Z,87.67
2016-02-05T09:19:07.940Z,87.19
2016-02-05T09:20:07.871Z,87.1
2016-02-05T09:21:07.827Z,87.19
2016-02-05T09:22:07.768Z,86.91
2016-02-05T09:23:07.754Z,87.57
2016-02-05T09:24:07.664Z,87.57
2016-02-05T09:25:07.620Z,87.1
2016-02-05T09:26:06.844Z,87.1
2016-02-05T09:27:07.488Z,86.91
2016-02-05T09:28:07.460Z,86.05
2016-02-05T09:29:07.384Z,86.15
2016-02-05T09:30:07.340Z,86.53
2016-02-05T09:31:07.295Z,86.43
2016-02-05T09:32:07.220Z,86.05
2016-02-05T09:33:07.191Z,86.72
2016-02-05T09:34:07.101Z,86.34
2016-02-05T09:35:07.040Z,87.01
2016-02-05T09:36:07.044Z,87.1
2016-02-05T09:37:06.968Z,86.82
2016-02-05T09:38:06.877Z,86.05
2016-02-05T09:39:06.879Z,85.77
2016-02-05T09:40:06.773Z,85.86
2016-02-05T09:41:06.760Z,86.63
2016-02-05T09:42:06.700Z,85.96
2016-02-05T09:43:06.625Z,86.53
2016-02-05T09:44:06.611Z,85.96
2016-02-05T09:45:06.536Z,86.05
2016-02-05T09:46:06.477Z,86.24
2016-02-05T09:47:06.418Z,85.86
2016-02-05T09:48:06.345Z,85.49
2016-02-05T09:49:06.302Z,85.96
2016-02-05T09:50:06.257Z,85.58
2016-02-05T09:51:06.196Z,85.39
2016-02-05T09:52:06.168Z,85.62
2016-02-05T09:53:06.094Z,85.2
2016-02-05T09:54:06.050Z,85.43
2016-02-05T09:55:05.991Z,85.53
2016-02-05T09:56:05.946Z,85.91
2016-02-05T09:57:06.058Z,85.43
2016-02-05T09:58:05.827Z,85.24
2016-02-05T09:59:05.784Z,85.43
2016-02-05T10:00:05.692Z,85.62
2016-02-05T10:01:05.680Z,85.62
2016-02-05T10:02:05.589Z,85.53
2016-02-05T10:03:05.561Z,85.53
2016-02-05T10:04:05.501Z,85.34
2016-02-05T10:05:05.442Z,85.81
2016-02-05T10:06:05.366Z,85.43
2016-02-05T10:07:05.338Z,85.53
2016-02-05T10:08:05.263Z,85.43
2016-02-05T10:09:05.046Z,84.77
2016-02-05T10:10:05.174Z,85.2
2016-02-05T10:11:05.130Z,85.34
2016-02-05T10:12:05.054Z,85.53
2016-02-05T10:13:04.979Z,85.81
2016-02-05T10:14:04.935Z,85.72
2016-02-05T10:15:04.890Z,85.62
2016-02-05T10:16:04.817Z,85.81
2016-02-05T10:17:04.819Z,85.62
2016-02-05T10:18:04.744Z,85.34
2016-02-05T10:19:04.688Z,84.67
2016-02-05T10:20:04.644Z,84.2
2016-02-05T10:21:04.553Z,84.1
2016-02-05T10:22:04.571Z,84.29
2016-02-05T10:23:04.449Z,84.29
2016-02-05T10:24:04.405Z,84.01
2016-02-05T10:25:04.376Z,83.62
2016-02-05T10:26:04.300Z,83.82
2016-02-05T10:27:04.304Z,84.1
2016-02-05T10:28:04.009Z,83.15
2016-02-05T10:29:04.153Z,83.44
2016-02-05T10:30:04.092Z,83.25
2016-02-05T10:31:04.049Z,83.34
2016-02-05T10:32:03.973Z,83.62
2016-02-05T10:33:03.914Z,83.53
2016-02-05T10:34:03.854Z,83.25
2016-02-05T10:35:03.841Z,83.44
2016-02-05T10:36:03.750Z,83.34
2016-02-05T10:37:03.847Z,83.15
2016-02-05T10:38:03.631Z,83.25
2016-02-05T10:39:03.588Z,83.53
2016-02-05T10:40:03.529Z,83.62
2016-02-05T10:41:03.516Z,83.25
2016-02-05T10:42:03.440Z,82.96
2016-02-05T10:43:03.349Z,82.96
2016-02-05T10:44:03.321Z,83.15
2016-02-05T10:45:03.135Z,83.25
2016-02-05T10:46:03.216Z,83.25
2016-02-05T10:47:03.141Z,83.25
2016-02-05T10:48:03.112Z,83.44
2016-02-05T10:49:03.053Z,83.15
2016-02-05T10:50:02.993Z,82.77
2016-02-05T10:51:02.917Z,82.29
2016-02-05T10:52:02.904Z,82.01
2016-02-05T10:53:02.829Z,82.29
2016-02-05T10:54:02.800Z,81.54
2016-02-05T10:55:02.756Z,81.63
2016-02-05T10:56:02.665Z,82.1
2016-02-05T10:57:02.606Z,81.44
2016-02-05T10:58:02.577Z,82.01
2016-02-05T10:59:02.502Z,81.54
2016-02-05T11:00:02.459Z,82.29
2016-02-05T11:01:02.398Z,81.73
2016-02-05T11:02:02.339Z,80.82
2016-02-05T11:03:02.328Z,80.24
2016-02-05T11:04:02.252Z,79.86
2016-02-05T11:05:02.177Z,80.24
2016-02-05T11:06:02.133Z,79.86
2016-02-05T11:07:02.104Z,79.86
2016-02-05T11:08:02.044Z,80.15
2016-02-05T11:09:01.952Z,80.15
2016-02-05T11:10:01.924Z,80.34
2016-02-05T11:11:01.865Z,80.24
2016-02-05T11:12:01.806Z,80.15
2016-02-05T11:13:01.746Z,79.96
2016-02-05T11:14:01.717Z,79.86
2016-02-05T11:15:01.658Z,79.96
2016-02-05T11:16:01.613Z,80.05
2016-02-05T11:17:01.540Z,80.24
2016-02-05T11:18:01.464Z,80.91
2016-02-05T11:19:01.422Z,80.63
2016-02-05T11:20:01.393Z,80.63
2016-02-05T11:21:01.380Z,80.24
2016-02-05T11:22:01.289Z,80.34
2016-02-05T11:23:01.213Z,80.05
2016-02-05T11:24:01.169Z,79.77
2016-02-05T11:25:01.126Z,80.24
2016-02-05T11:26:01.082Z,80.24
2016-02-05T11:27:01.006Z,79.96
2016-02-05T11:28:00.947Z,79.58
2016-02-05T11:29:00.997Z,79.11
2016-02-05T11:30:00.858Z,78.72
2016-02-05T11:31:00.814Z,78.91
2016-02-05T11:32:00.741Z,78.25
2016-02-05T11:33:00.681Z,77.91
2016-02-05T11:34:00.605Z,77.43
2016-02-05T11:35:00.593Z,77.24
2016-02-05T11:36:00.532Z,76.96
2016-02-05T11:37:00.479Z,76.96
2016-02-05T11:38:00.417Z,76.76
2016-02-05T11:39:00.389Z,76.96
2016-02-05T11:40:00.315Z,76.29
2016-02-05T11:41:00.254Z,76.57
2016-02-05T11:42:00.179Z,76.57
2016-02-05T11:43:00.134Z,76.96
2016-02-05T11:44:00.122Z,77.24
2016-02-05T11:44:59.875Z,77.05
2016-02-05T11:45:59.987Z,77.43
2016-02-05T11:46:59.942Z,77.53
2016-02-05T11:47:59.898Z,76.86
2016-02-05T11:48:59.838Z,76.76
2016-02-05T11:49:59.778Z,76.86
2016-02-05T11:50:59.750Z,77.34
2016-02-05T11:51:59.659Z,77.53
2016-02-05T11:52:59.614Z,77.15
2016-02-05T11:53:59.555Z,76.86
2016-02-05T11:54:59.494Z,77.34
2016-02-05T11:55:59.466Z,77.43
2016-02-05T11:56:59.407Z,77.34
2016-02-05T11:57:59.331Z,77.53
2016-02-05T11:58:59.272Z,77.62
2016-02-05T11:59:59.244Z,77.15
2016-02-05T12:00:59.167Z,76.96
2016-02-05T12:01:59.140Z,77.15
2016-02-05T12:02:59.096Z,76.86
2016-02-05T12:03:59.006Z,77.62
2016-02-05T12:04:58.979Z,77.24
2016-02-05T12:05:58.919Z,76.86
2016-02-05T12:06:58.875Z,76.96
2016-02-05T12:07:58.831Z,75.62
2016-02-05T12:08:58.772Z,75.34
2016-02-05T12:09:58.684Z,75.34
2016-02-05T12:10:58.671Z,76.1
2016-02-05T12:11:58.564Z,76.29
2016-02-05T12:12:58.520Z,75.81
2016-02-05T12:13:58.476Z,75.91
2016-02-05T12:14:58.431Z,76.1
2016-02-05T12:15:58.403Z,76.1
2016-02-05T12:16:58.342Z,75.91
2016-02-05T12:17:58.269Z,75.91
2016-02-05T12:18:58.241Z,75.53
2016-02-05T12:19:58.166Z,75.81
2016-02-05T12:20:58.121Z,77.43
2016-02-05T12:21:58.046Z,77.24
2016-02-05T12:22:58.004Z,77.15
2016-02-05T12:23:57.975Z,76.29
2016-02-05T12:24:57.900Z,76.29
2016-02-05T12:25:57.840Z,76.29
2016-02-05T12:26:57.797Z,76.67
2016-02-05T12:27:57.737Z,76.48
2016-02-05T12:28:57.708Z,76.29
2016-02-05T12:29:57.634Z,75.91
2016-02-05T12:30:57.560Z,75.91
2016-02-05T12:31:57.531Z,75.72
2016-02-05T12:32:57.331Z,75.72
2016-02-05T12:33:57.415Z,76.01
2016-02-05T12:34:57.372Z,75.81
2016-02-05T12:35:57.296Z,76.39
2016-02-05T12:36:57.252Z,76.29
2016-02-05T12:37:57.211Z,76.86
2016-02-05T12:38:57.151Z,76.76
2016-02-05T12:39:57.091Z,76.29
2016-02-05T12:40:57.031Z,76.39
2016-02-05T12:41:57.003Z,76.48
2016-02-05T12:42:56.945Z,75.91
2016-02-05T12:43:56.884Z,75.62
2016-02-05T12:44:56.825Z,75.53
2016-02-05T12:45:56.780Z,75.72
2016-02-05T12:46:56.752Z,76.1
2016-02-05T12:47:56.661Z,75.72
2016-02-05T12:48:56.601Z,76.2
2016-02-05T12:49:56.572Z,76.86
2016-02-05T12:50:56.502Z,76.29
2016-02-05T12:51:56.472Z,76.76
2016-02-05T12:52:56.413Z,76.29
2016-02-05T12:53:56.321Z,76.48
2016-02-05T12:54:56.293Z,76.29
2016-02-05T12:55:56.221Z,76.57
2016-02-05T12:56:56.224Z,76.67